Time;durP1;ratioP1;P1;durP2;ratioP2;P2;SDS_P1;SDS_P2;PMS_P1;PMS_P2;Temp;Humidity;BMP_temperature;BMP_pressure;BME280_temperature;BME280_humidity;BME280_pressure;Samples;Min_cycle;Max_cycle;Signal;HPM_P1;HPM_P2
2023/12/01 00:01:20;;;;;;;;;27.00;26.67;;;;;;;;4922151;28;45394;-78
2023/12/01 00:03:48;;;;;;;;;35.25;32.50;;;;;;;;4921807;28;45278;-78
2023/12/01 00:06:13;;;;;;;;;39.00;33.33;;;;;;;;4921980;28;45393;-78
2023/12/01 00:08:38;;;;;;;;;38.00;34.00;;;;;;;;4904377;28;47259;-78
2023/12/01 00:11:03;;;;;;;;;35.50;29.00;;;;;;;;4904296;28;46915;-78
2023/12/01 00:13:29;;;;;;;;;37.50;34.25;;;;;;;;4921400;28;45412;-78
2023/12/01 00:15:54;;;;;;;;;38.33;34.00;;;;;;;;4904773;28;45292;-78
2023/12/01 00:18:20;;;;;;;;;43.00;36.67;;;;;;;;4921178;28;45456;-78
2023/12/01 00:20:45;;;;;;;;;44.67;34.33;;;;;;;;4921397;28;45444;-78
2023/12/01 00:23:10;;;;;;;;;42.25;37.00;;;;;;;;4921519;28;45333;-78
2023/12/01 00:25:36;;;;;;;;;34.75;29.75;;;;;;;;4921655;28;45342;-78
2023/12/01 00:28:01;;;;;;;;;51.25;41.50;;;;;;;;4921499;28;45333;-78
2023/12/01 00:30:29;;;;;;;;;46.00;37.75;;;;;;;;4904634;28;48240;-78
2023/12/01 00:32:54;;;;;;;;;47.00;39.25;;;;;;;;4924772;28;45283;-78
2023/12/01 00:35:19;;;;;;;;;46.50;38.25;;;;;;;;4907566;28;45428;-78
2023/12/01 00:37:45;;;;;;;;;42.50;36.75;;;;;;;;4907544;28;45978;-78
2023/12/01 00:40:10;;;;;;;;;46.00;37.75;;;;;;;;4907728;28;45224;-78
2023/12/01 00:42:35;;;;;;;;;49.25;40.75;;;;;;;;4888298;29;46272;-78
2023/12/01 00:45:01;;;;;;;;;47.75;40.25;;;;;;;;4888379;29;45366;-78
2023/12/01 00:47:27;;;;;;;;;48.25;41.50;;;;;;;;4888511;29;47224;-78
2023/12/01 00:49:52;;;;;;;;;42.75;36.75;;;;;;;;4905615;29;46063;-78
2023/12/01 00:52:17;;;;;;;;;46.75;39.75;;;;;;;;4905585;29;45334;-78
2023/12/01 00:54:42;;;;;;;;;50.25;39.75;;;;;;;;4905783;29;45332;-77
2023/12/01 00:57:07;;;;;;;;;44.67;38.00;;;;;;;;4910862;28;45541;-77
2023/12/01 00:59:32;;;;;;;;;44.00;37.33;;;;;;;;4926666;28;45351;-77
2023/12/01 01:01:58;;;;;;;;;39.33;36.00;;;;;;;;4893459;29;45354;-77
2023/12/01 01:04:23;;;;;;;;;40.25;36.00;;;;;;;;4904926;29;45252;-77
2023/12/01 01:06:48;;;;;;;;;43.50;39.00;;;;;;;;4905128;29;45486;-77
2023/12/01 01:09:13;;;;;;;;;40.50;36.00;;;;;;;;4887131;29;47152;-77
2023/12/01 01:11:39;;;;;;;;;50.25;39.75;;;;;;;;4904951;29;45436;-77
2023/12/01 01:14:04;;;;;;;;;48.75;39.50;;;;;;;;4905468;29;45300;-78
2023/12/01 01:16:29;;;;;;;;;44.50;37.00;;;;;;;;4905027;29;45324;-77
2023/12/01 01:18:54;;;;;;;;;42.50;36.50;;;;;;;;4887663;29;48573;-77
2023/12/01 01:21:19;;;;;;;;;44.00;37.00;;;;;;;;4904503;29;45317;-77
2023/12/01 01:23:45;;;;;;;;;56.75;45.25;;;;;;;;4905199;29;45605;-78
2023/12/01 01:26:10;;;;;;;;;45.50;39.75;;;;;;;;4904394;29;45432;-78
2023/12/01 01:28:35;;;;;;;;;50.75;38.50;;;;;;;;4887254;29;47877;-77
2023/12/01 01:31:00;;;;;;;;;50.25;41.25;;;;;;;;4904866;29;45601;-78
2023/12/01 01:33:25;;;;;;;;;46.75;39.00;;;;;;;;4905194;29;45557;-78
2023/12/01 01:35:51;;;;;;;;;46.00;36.75;;;;;;;;4887845;29;47377;-77
2023/12/01 01:38:16;;;;;;;;;48.75;40.25;;;;;;;;4887439;29;48542;-78
2023/12/01 01:40:41;;;;;;;;;47.25;37.00;;;;;;;;4904986;29;45458;-77
2023/12/01 01:43:07;;;;;;;;;50.00;38.25;;;;;;;;4887249;29;45449;-78
2023/12/01 01:45:32;;;;;;;;;54.75;42.50;;;;;;;;4887852;29;46075;-79
2023/12/01 01:47:57;;;;;;;;;52.25;38.75;;;;;;;;4887432;29;47186;-77
2023/12/01 01:50:23;;;;;;;;;39.75;34.50;;;;;;;;4907407;29;45499;-77
2023/12/01 01:52:49;;;;;;;;;46.00;37.75;;;;;;;;4905075;29;45376;-77
2023/12/01 01:55:14;;;;;;;;;44.00;39.50;;;;;;;;4904544;29;45445;-78
2023/12/01 01:57:45;;;;;;;;;40.50;37.50;;;;;;;;4896914;28;48097;-78
2023/12/01 02:00:12;;;;;;;;;45.75;39.50;;;;;;;;4887757;29;45297;-78
2023/12/01 02:02:37;;;;;;;;;44.25;39.75;;;;;;;;4904514;29;45376;-78
2023/12/01 02:05:12;;;;;;;;;37.25;32.25;;;;;;;;4904213;29;45498;-78
2023/12/01 02:07:38;;;;;;;;;38.25;36.00;;;;;;;;4904634;29;45328;-78
2023/12/01 02:10:03;;;;;;;;;46.25;36.75;;;;;;;;4904416;29;45356;-77
2023/12/01 02:12:29;;;;;;;;;47.75;37.50;;;;;;;;4904258;29;45334;-78
2023/12/01 02:14:54;;;;;;;;;45.25;35.00;;;;;;;;4904133;29;45439;-77
2023/12/01 02:17:19;;;;;;;;;45.00;36.60;;;;;;;;4904274;29;45439;-78
2023/12/01 02:19:44;;;;;;;;;45.75;38.75;;;;;;;;4903974;29;45292;-79
2023/12/01 02:22:10;;;;;;;;;41.75;35.50;;;;;;;;4887185;29;45370;-79
2023/12/01 02:24:35;;;;;;;;;44.75;36.00;;;;;;;;4904082;29;45411;-78
2023/12/01 02:27:00;;;;;;;;;41.25;37.00;;;;;;;;4904315;29;45369;-78
2023/12/01 02:29:25;;;;;;;;;34.00;28.80;;;;;;;;4887686;29;45287;-77
2023/12/01 02:31:50;;;;;;;;;50.50;37.50;;;;;;;;4904241;29;45420;-77
2023/12/01 02:34:15;;;;;;;;;50.75;42.00;;;;;;;;4903668;29;45496;-78
2023/12/01 02:36:41;;;;;;;;;51.50;37.00;;;;;;;;4903941;29;45696;-78
2023/12/01 02:39:08;;;;;;;;;49.00;39.50;;;;;;;;4903975;29;45244;-78
2023/12/01 02:41:33;;;;;;;;;45.25;40.00;;;;;;;;4903523;29;45401;-78
2023/12/01 02:43:58;;;;;;;;;49.25;37.50;;;;;;;;4885974;29;46344;-78
2023/12/01 02:46:23;;;;;;;;;38.50;35.75;;;;;;;;4903109;29;46226;-77
2023/12/01 02:48:50;;;;;;;;;39.75;36.00;;;;;;;;4903466;29;45269;-78
2023/12/01 02:51:15;;;;;;;;;42.75;36.00;;;;;;;;4904139;29;45462;-77
2023/12/01 02:53:40;;;;;;;;;47.00;40.00;;;;;;;;4903403;29;45280;-78
2023/12/01 02:56:06;;;;;;;;;26.75;19.50;;;;;;;;4886053;29;48712;-78
2023/12/01 02:58:31;;;;;;;;;42.25;37.00;;;;;;;;4902971;28;45360;-77
2023/12/01 03:00:57;;;;;;;;;46.25;36.00;;;;;;;;4922923;28;45418;-78
2023/12/01 03:03:22;;;;;;;;;48.75;37.00;;;;;;;;4905268;28;46180;-78
2023/12/01 03:05:47;;;;;;;;;40.33;34.67;;;;;;;;4922670;28;45340;-78
2023/12/01 03:08:13;;;;;;;;;46.00;36.25;;;;;;;;4922636;28;45458;-78
2023/12/01 03:10:38;;;;;;;;;42.75;37.00;;;;;;;;4922751;28;45239;-78
2023/12/01 03:13:03;;;;;;;;;46.00;38.00;;;;;;;;4905115;28;45919;-77
2023/12/01 03:15:29;;;;;;;;;38.75;33.50;;;;;;;;4922556;28;45392;-78
2023/12/01 03:17:55;;;;;;;;;45.25;35.25;;;;;;;;4922131;28;45506;-77
2023/12/01 03:20:20;;;;;;;;;38.50;34.75;;;;;;;;4922722;28;45331;-78
2023/12/01 03:22:46;;;;;;;;;43.50;34.75;;;;;;;;4922391;28;45514;-77
2023/12/01 03:25:11;;;;;;;;;45.50;36.50;;;;;;;;4922587;28;45336;-77
2023/12/01 03:27:41;;;;;;;;;36.33;35.33;;;;;;;;4922545;28;45518;-78
2023/12/01 03:30:13;;;;;;;;;46.25;37.75;;;;;;;;4922326;28;45514;-78
2023/12/01 03:32:38;;;;;;;;;43.00;36.33;;;;;;;;4922199;28;45247;-78
2023/12/01 03:35:04;;;;;;;;;44.50;38.25;;;;;;;;4904738;28;47316;-78
2023/12/01 03:37:29;;;;;;;;;44.00;39.00;;;;;;;;4904865;28;45260;-78
2023/12/01 03:39:54;;;;;;;;;46.50;36.25;;;;;;;;4922309;28;45273;-78
2023/12/01 03:42:19;;;;;;;;;49.50;39.75;;;;;;;;4904925;28;46089;-78
2023/12/01 03:44:44;;;;;;;;;47.50;38.50;;;;;;;;4922169;28;46212;-78
2023/12/01 03:47:09;;;;;;;;;48.00;40.50;;;;;;;;4922454;28;45306;-78
2023/12/01 03:49:35;;;;;;;;;48.75;38.75;;;;;;;;4922285;28;45233;-77
2023/12/01 03:52:00;;;;;;;;;40.25;36.75;;;;;;;;4922140;28;45670;-78
2023/12/01 03:54:25;;;;;;;;;50.75;40.25;;;;;;;;4921742;28;45373;-77
2023/12/01 03:56:50;;;;;;;;;47.25;39.00;;;;;;;;4918631;28;45306;-77
2023/12/01 03:59:15;;;;;;;;;45.50;37.50;;;;;;;;4903259;29;45479;-77
2023/12/01 04:01:40;;;;;;;;;41.75;37.50;;;;;;;;4902876;29;45543;-77
2023/12/01 04:04:10;;;;;;;;;48.20;39.40;;;;;;;;4902822;29;45416;-78
2023/12/01 04:06:35;;;;;;;;;34.00;27.25;;;;;;;;4904798;29;45341;-78
2023/12/01 04:09:05;;;;;;;;;45.00;38.00;;;;;;;;4906252;29;45329;-78
2023/12/01 04:11:31;;;;;;;;;52.50;43.50;;;;;;;;4888531;29;46151;-78
2023/12/01 04:13:57;;;;;;;;;44.00;37.50;;;;;;;;4888934;29;47021;-77
2023/12/01 04:16:24;;;;;;;;;50.50;42.00;;;;;;;;4888936;29;45361;-77
2023/12/01 04:18:49;;;;;;;;;50.75;41.25;;;;;;;;4905485;29;45415;-77
2023/12/01 04:21:15;;;;;;;;;52.75;41.75;;;;;;;;4906024;29;45306;-78
2023/12/01 04:23:40;;;;;;;;;51.50;39.75;;;;;;;;4905873;29;45423;-77
2023/12/01 04:26:06;;;;;;;;;44.50;37.75;;;;;;;;4906519;29;45321;-77
2023/12/01 04:28:31;;;;;;;;;51.00;38.75;;;;;;;;4906050;29;45263;-78
2023/12/01 04:30:56;;;;;;;;;49.50;40.75;;;;;;;;4905977;29;45239;-78
2023/12/01 04:33:21;;;;;;;;;44.75;36.75;;;;;;;;4905680;29;46117;-77
2023/12/01 04:35:46;;;;;;;;;46.00;37.25;;;;;;;;4906150;29;45334;-78
2023/12/01 04:38:12;;;;;;;;;51.25;42.50;;;;;;;;4906005;29;45321;-78
2023/12/01 04:40:37;;;;;;;;;49.25;38.25;;;;;;;;4888630;29;46058;-78
2023/12/01 04:43:03;;;;;;;;;42.75;37.75;;;;;;;;4905595;29;46777;-78
2023/12/01 04:45:30;;;;;;;;;45.00;39.50;;;;;;;;4905699;29;45297;-78
2023/12/01 04:47:55;;;;;;;;;46.25;37.50;;;;;;;;4905480;29;45324;-77
2023/12/01 04:50:22;;;;;;;;;51.25;38.25;;;;;;;;4905286;29;45373;-77
2023/12/01 04:52:48;;;;;;;;;43.00;38.00;;;;;;;;4888468;29;47051;-78
2023/12/01 04:55:14;;;;;;;;;42.25;37.50;;;;;;;;4888122;29;46128;-78
2023/12/01 04:57:40;;;;;;;;;44.00;36.50;;;;;;;;4915182;28;45313;-78
2023/12/01 05:00:18;;;;;;;;;46.25;38.50;;;;;;;;4924418;28;45260;-78
2023/12/01 05:02:44;;;;;;;;;47.75;38.25;;;;;;;;4924423;28;45364;-78
2023/12/01 05:05:11;;;;;;;;;46.00;37.75;;;;;;;;4922740;28;45320;-77
2023/12/01 05:07:36;;;;;;;;;47.50;38.75;;;;;;;;4905589;29;45397;-78
2023/12/01 05:10:08;;;;;;;;;51.00;41.25;;;;;;;;4887444;29;46418;-77
2023/12/01 05:12:33;;;;;;;;;45.00;37.25;;;;;;;;4903775;29;45565;-78
2023/12/01 05:14:58;;;;;;;;;45.50;37.50;;;;;;;;4904659;29;45337;-78
2023/12/01 05:17:23;;;;;;;;;44.25;38.50;;;;;;;;4904217;29;45281;-78
2023/12/01 05:19:48;;;;;;;;;52.00;41.75;;;;;;;;4887766;29;46234;-78
2023/12/01 05:22:14;;;;;;;;;50.00;40.00;;;;;;;;4905364;29;45207;-78
2023/12/01 05:24:42;;;;;;;;;51.00;39.75;;;;;;;;4904871;29;45363;-78
2023/12/01 05:27:08;;;;;;;;;53.25;42.75;;;;;;;;4905322;29;45308;-79
2023/12/01 05:29:35;;;;;;;;;43.75;37.50;;;;;;;;4904797;29;45429;-78
2023/12/01 05:32:00;;;;;;;;;51.50;41.50;;;;;;;;4905011;29;45936;-77
2023/12/01 05:34:26;;;;;;;;;54.25;43.25;;;;;;;;4904684;29;45331;-77
2023/12/01 05:36:51;;;;;;;;;55.00;44.00;;;;;;;;4905154;29;45767;-78
2023/12/01 05:39:16;;;;;;;;;53.75;42.25;;;;;;;;4904736;29;45770;-78
2023/12/01 05:41:41;;;;;;;;;45.00;37.75;;;;;;;;4904924;29;46081;-77
2023/12/01 05:44:06;;;;;;;;;42.00;38.00;;;;;;;;4904865;29;45760;-78
2023/12/01 05:46:31;;;;;;;;;50.50;43.00;;;;;;;;4888057;29;45719;-78
2023/12/01 05:48:57;;;;;;;;;52.00;42.00;;;;;;;;4904332;29;45363;-77
2023/12/01 05:51:22;;;;;;;;;46.50;38.75;;;;;;;;4871955;29;47374;-78
2023/12/01 05:53:48;;;;;;;;;54.25;41.25;;;;;;;;4885433;29;45299;-78
2023/12/01 05:56:14;;;;;;;;;52.75;42.50;;;;;;;;4868950;29;45335;-78
2023/12/01 05:58:42;;;;;;;;;46.50;37.50;;;;;;;;4903373;28;45717;-78
2023/12/01 06:01:07;;;;;;;;;54.00;42.00;;;;;;;;4923646;28;45382;-77
2023/12/01 06:03:32;;;;;;;;;43.50;38.50;;;;;;;;4923257;28;45303;-78
2023/12/01 06:05:57;;;;;;;;;48.00;40.25;;;;;;;;4911652;28;45435;-78
2023/12/01 06:08:23;;;;;;;;;54.50;40.75;;;;;;;;4890605;29;45669;-78
2023/12/01 06:10:48;;;;;;;;;49.80;41.40;;;;;;;;4895088;29;45469;-77
2023/12/01 06:13:13;;;;;;;;;51.25;40.75;;;;;;;;4893910;29;45368;-78
2023/12/01 06:15:38;;;;;;;;;49.00;37.00;;;;;;;;4893511;29;45550;-79
2023/12/01 06:18:03;;;;;;;;;53.00;43.00;;;;;;;;4885074;29;45404;-77
2023/12/01 06:20:30;;;;;;;;;56.50;44.00;;;;;;;;4885168;29;46276;-78
2023/12/01 06:23:05;;;;;;;;;52.00;42.75;;;;;;;;4886119;29;45236;-78
2023/12/01 06:25:31;;;;;;;;;53.00;41.25;;;;;;;;4874237;29;45382;-79
2023/12/01 06:27:58;;;;;;;;;58.50;42.50;;;;;;;;4899616;29;45237;-78
2023/12/01 06:30:24;;;;;;;;;35.50;34.50;;;;;;;;4903391;29;45670;-78
2023/12/01 06:32:50;;;;;;;;;51.50;40.25;;;;;;;;4902658;29;45304;-78
2023/12/01 06:35:16;;;;;;;;;54.50;43.75;;;;;;;;4886690;29;45527;-78
2023/12/01 06:37:42;;;;;;;;;54.25;44.25;;;;;;;;4886268;29;45578;-77
2023/12/01 06:40:11;;;;;;;;;51.75;44.00;;;;;;;;4903924;29;45352;-78
2023/12/01 06:42:39;;;;;;;;;45.75;39.25;;;;;;;;4903423;29;45320;-78
2023/12/01 06:45:05;;;;;;;;;48.00;40.75;;;;;;;;4897332;29;45244;-77
2023/12/01 06:47:30;;;;;;;;;51.25;42.50;;;;;;;;4893331;29;45507;-78
2023/12/01 06:49:55;;;;;;;;;51.00;39.50;;;;;;;;4893524;29;45463;-78
2023/12/01 06:52:21;;;;;;;;;47.00;40.50;;;;;;;;4894957;29;45336;-79
2023/12/01 06:54:46;;;;;;;;;50.75;37.50;;;;;;;;4892792;29;45391;-78
2023/12/01 06:57:11;;;;;;;;;49.50;40.00;;;;;;;;4899279;28;45315;-78
2023/12/01 06:59:36;;;;;;;;;48.00;40.00;;;;;;;;4893342;29;45469;-77
2023/12/01 07:02:01;;;;;;;;;43.20;36.80;;;;;;;;4878013;29;45333;-79
2023/12/01 07:04:26;;;;;;;;;51.75;43.50;;;;;;;;4893392;29;45342;-79
2023/12/01 07:06:53;;;;;;;;;51.50;40.75;;;;;;;;4894089;29;45314;-79
2023/12/01 07:09:18;;;;;;;;;46.50;38.25;;;;;;;;4894562;29;45360;-78
2023/12/01 07:11:45;;;;;;;;;53.50;42.00;;;;;;;;4892536;29;45589;-78
2023/12/01 07:14:12;;;;;;;;;49.50;41.00;;;;;;;;4893725;29;45359;-76
2023/12/01 07:16:37;;;;;;;;;50.50;39.50;;;;;;;;4893697;29;45323;-78
2023/12/01 07:19:03;;;;;;;;;51.75;41.00;;;;;;;;4874390;29;48103;-78
2023/12/01 07:21:30;;;;;;;;;47.50;40.75;;;;;;;;4892708;29;45406;-78
2023/12/01 07:23:55;;;;;;;;;53.75;44.75;;;;;;;;4903476;29;45188;-79
2023/12/01 07:26:25;;;;;;;;;56.00;43.75;;;;;;;;4900902;29;45895;-78
2023/12/01 07:28:52;;;;;;;;;53.25;43.50;;;;;;;;4900597;29;45499;-79
2023/12/01 07:31:17;;;;;;;;;52.75;42.75;;;;;;;;4899587;29;45746;-78
2023/12/01 07:33:42;;;;;;;;;59.60;47.00;;;;;;;;4902351;29;45613;-77
2023/12/01 07:36:09;;;;;;;;;52.50;44.25;;;;;;;;4901358;29;46405;-77
2023/12/01 07:38:34;;;;;;;;;55.25;45.75;;;;;;;;4902331;29;45519;-78
2023/12/01 07:41:01;;;;;;;;;50.50;41.75;;;;;;;;4902098;29;45372;-78
2023/12/01 07:43:26;;;;;;;;;47.50;38.00;;;;;;;;4903035;29;45300;-78
2023/12/01 07:45:51;;;;;;;;;50.00;41.00;;;;;;;;4903004;29;45320;-78
2023/12/01 07:48:16;;;;;;;;;46.75;38.75;;;;;;;;4902420;29;45608;-77
2023/12/01 07:50:41;;;;;;;;;40.75;37.25;;;;;;;;4902889;29;45236;-78
2023/12/01 07:53:07;;;;;;;;;51.00;42.25;;;;;;;;4903050;29;45290;-76
2023/12/01 07:55:32;;;;;;;;;52.50;40.25;;;;;;;;4902011;29;45381;-76
2023/12/01 07:57:58;;;;;;;;;55.50;42.00;;;;;;;;4897857;28;45393;-77
2023/12/01 08:00:24;;;;;;;;;53.75;43.50;;;;;;;;4883614;29;45391;-77
2023/12/01 08:02:52;;;;;;;;;46.75;39.75;;;;;;;;4867061;29;45313;-77
2023/12/01 08:05:18;;;;;;;;;49.50;38.75;;;;;;;;4893790;29;45329;-77
2023/12/01 08:07:44;;;;;;;;;52.75;41.50;;;;;;;;4902445;29;45355;-77
2023/12/01 08:10:14;;;;;;;;;51.75;40.50;;;;;;;;4889924;29;45235;-77
2023/12/01 08:12:40;;;;;;;;;47.00;40.00;;;;;;;;4865891;29;45467;-77
2023/12/01 08:15:06;;;;;;;;;50.50;40.50;;;;;;;;4883516;29;45510;-77
2023/12/01 08:17:31;;;;;;;;;34.25;28.50;;;;;;;;4883429;29;45353;-77
2023/12/01 08:19:56;;;;;;;;;54.00;44.25;;;;;;;;4883827;29;45220;-77
2023/12/01 08:22:21;;;;;;;;;55.50;44.00;;;;;;;;4891210;28;45552;-77
2023/12/01 08:24:46;;;;;;;;;54.50;44.50;;;;;;;;4883691;29;45241;-78
2023/12/01 08:27:12;;;;;;;;;55.50;44.75;;;;;;;;4882197;29;46305;-77
2023/12/01 08:29:37;;;;;;;;;52.25;43.00;;;;;;;;4887599;29;45714;-77
2023/12/01 08:32:03;;;;;;;;;48.50;40.25;;;;;;;;4892571;29;45816;-79
2023/12/01 08:34:28;;;;;;;;;43.75;37.75;;;;;;;;4885698;29;45353;-79
2023/12/01 08:36:53;;;;;;;;;52.25;43.25;;;;;;;;4882687;29;46021;-77
2023/12/01 08:39:20;;;;;;;;;49.75;42.25;;;;;;;;4882686;29;45525;-78
2023/12/01 08:41:45;;;;;;;;;43.50;37.75;;;;;;;;4902208;29;45437;-78
2023/12/01 08:44:10;;;;;;;;;54.75;42.75;;;;;;;;4884193;29;47159;-77
2023/12/01 08:46:36;;;;;;;;;51.00;42.00;;;;;;;;4901360;29;45457;-77
2023/12/01 08:49:01;;;;;;;;;49.00;41.00;;;;;;;;4884656;29;45498;-79
2023/12/01 08:51:26;;;;;;;;;49.75;39.25;;;;;;;;4884704;29;45459;-79
2023/12/01 08:53:51;;;;;;;;;46.60;37.80;;;;;;;;4888027;29;45889;-78
2023/12/01 08:56:16;;;;;;;;;50.25;43.75;;;;;;;;4905227;29;45380;-78
2023/12/01 08:58:41;;;;;;;;;52.50;41.00;;;;;;;;4922498;28;45339;-80
2023/12/01 09:01:07;;;;;;;;;45.50;37.00;;;;;;;;4906770;28;45744;-79
2023/12/01 09:03:32;;;;;;;;;50.50;39.75;;;;;;;;4906351;28;46754;-79
2023/12/01 09:05:57;;;;;;;;;42.00;37.50;;;;;;;;4906893;28;48028;-76
2023/12/01 09:08:22;;;;;;;;;40.00;35.75;;;;;;;;4907188;28;45440;-77
2023/12/01 09:10:48;;;;;;;;;53.25;41.75;;;;;;;;4907123;28;45801;-79
2023/12/01 09:13:13;;;;;;;;;50.50;40.25;;;;;;;;4924602;28;45419;-79
2023/12/01 09:15:38;;;;;;;;;50.00;39.25;;;;;;;;4906028;28;48343;-78
2023/12/01 09:18:03;;;;;;;;;52.75;41.75;;;;;;;;4906547;28;45643;-78
2023/12/01 09:20:29;;;;;;;;;48.00;38.25;;;;;;;;4904730;29;45308;-78
2023/12/01 09:22:54;;;;;;;;;48.25;40.50;;;;;;;;4887407;29;47057;-79
2023/12/01 09:25:20;;;;;;;;;52.25;41.25;;;;;;;;4903978;29;46167;-78
2023/12/01 09:27:45;;;;;;;;;46.50;37.75;;;;;;;;4886601;29;45911;-78
2023/12/01 09:30:13;;;;;;;;;48.25;38.75;;;;;;;;4904481;29;45625;-79
2023/12/01 09:32:39;;;;;;;;;55.75;45.25;;;;;;;;4895963;29;45284;-78
2023/12/01 09:35:05;;;;;;;;;50.75;41.00;;;;;;;;4894007;29;45396;-79
2023/12/01 09:37:30;;;;;;;;;51.00;41.25;;;;;;;;4894858;29;45373;-78
2023/12/01 09:39:55;;;;;;;;;50.00;40.20;;;;;;;;4904165;29;45311;-79
2023/12/01 09:42:23;;;;;;;;;52.50;42.00;;;;;;;;4880711;29;46066;-78
2023/12/01 09:44:49;;;;;;;;;52.25;39.25;;;;;;;;4899598;29;46354;-78
2023/12/01 09:47:17;;;;;;;;;48.50;38.00;;;;;;;;4899097;29;45289;-79
2023/12/01 09:49:45;;;;;;;;;55.75;44.00;;;;;;;;4882037;29;45346;-78
2023/12/01 09:52:13;;;;;;;;;44.50;38.00;;;;;;;;4877125;29;46210;-78
2023/12/01 09:54:38;;;;;;;;;53.00;43.50;;;;;;;;4884795;29;45445;-79
2023/12/01 09:57:06;;;;;;;;;52.00;40.25;;;;;;;;4896276;28;45420;-80
2023/12/01 09:59:32;;;;;;;;;51.75;41.75;;;;;;;;4918250;28;45314;-79
2023/12/01 10:01:57;;;;;;;;;52.00;40.50;;;;;;;;4891087;29;46015;-81
2023/12/01 10:04:23;;;;;;;;;52.75;40.75;;;;;;;;4880272;29;48364;-80
2023/12/01 10:06:48;;;;;;;;;54.00;42.25;;;;;;;;4881603;29;45409;-81
2023/12/01 10:09:24;;;;;;;;;51.00;37.75;;;;;;;;4903864;29;45234;-81
2023/12/01 10:12:03;;;;;;;;;52.50;40.50;;;;;;;;4904288;29;45313;-80
2023/12/01 10:14:29;;;;;;;;;53.25;42.25;;;;;;;;4886179;29;47870;-77
2023/12/01 10:17:00;;;;;;;;;49.00;40.25;;;;;;;;4883833;29;45827;-77
2023/12/01 10:19:25;;;;;;;;;52.25;40.00;;;;;;;;4874112;29;45336;-77
2023/12/01 10:21:51;;;;;;;;;44.75;39.50;;;;;;;;4889698;29;45395;-76
2023/12/01 10:24:22;;;;;;;;;53.50;43.75;;;;;;;;4884722;29;47102;-79
2023/12/01 10:26:52;;;;;;;;;49.25;40.50;;;;;;;;4901684;29;45824;-77
2023/12/01 10:29:30;;;;;;;;;47.25;37.25;;;;;;;;4903378;29;45400;-79
2023/12/01 10:32:07;;;;;;;;;57.50;47.25;;;;;;;;4912316;28;45374;-82
2023/12/01 10:34:33;;;;;;;;;50.75;40.00;;;;;;;;4886037;29;47514;-81
2023/12/01 10:36:59;;;;;;;;;53.50;42.75;;;;;;;;4888017;29;46037;-81
2023/12/01 10:39:25;;;;;;;;;55.25;41.25;;;;;;;;4910550;29;45336;-79
2023/12/01 10:41:51;;;;;;;;;50.50;40.75;;;;;;;;4910792;29;45452;-79
2023/12/01 10:44:17;;;;;;;;;46.25;39.25;;;;;;;;4886810;29;48196;-82
2023/12/01 10:46:46;;;;;;;;;51.25;40.25;;;;;;;;4870290;29;45442;-78
2023/12/01 10:49:13;;;;;;;;;48.75;41.75;;;;;;;;4869086;29;45384;-80
2023/12/01 10:51:41;;;;;;;;;53.75;41.75;;;;;;;;4868477;29;45560;-76
2023/12/01 10:54:09;;;;;;;;;57.25;45.00;;;;;;;;4891507;29;45991;-79
2023/12/01 10:56:42;;;;;;;;;55.25;44.50;;;;;;;;4909209;28;45469;-80
2023/12/01 10:59:09;;;;;;;;;51.50;40.25;;;;;;;;4905867;28;45372;-78
2023/12/01 11:01:34;;;;;;;;;49.00;39.25;;;;;;;;4928082;28;45486;-82
2023/12/01 11:04:00;;;;;;;;;45.00;39.25;;;;;;;;4905911;28;47204;-80
2023/12/01 11:06:38;;;;;;;;;46.50;41.00;;;;;;;;4923492;28;45394;-81
2023/12/01 11:09:03;;;;;;;;;51.75;40.75;;;;;;;;4923330;28;45415;-80
2023/12/01 11:11:36;;;;;;;;;46.00;39.20;;;;;;;;4901162;28;45571;-80
2023/12/01 11:14:16;;;;;;;;;51.00;41.00;;;;;;;;4884637;29;45406;-79
2023/12/01 11:16:42;;;;;;;;;49.50;41.25;;;;;;;;4883814;29;45317;-83
2023/12/01 11:19:08;;;;;;;;;51.50;41.00;;;;;;;;4885157;29;45300;-78
2023/12/01 11:21:33;;;;;;;;;51.25;43.25;;;;;;;;4884866;29;45340;-80
2023/12/01 11:24:18;;;;;;;;;49.75;41.50;;;;;;;;4873083;29;47972;-79
2023/12/01 11:26:47;;;;;;;;;43.50;37.25;;;;;;;;4884880;29;45345;-78
2023/12/01 11:29:19;;;;;;;;;48.25;38.25;;;;;;;;4910005;29;45146;-79
2023/12/01 11:31:51;;;;;;;;;54.50;42.75;;;;;;;;4893150;29;45900;-79
2023/12/01 11:34:16;;;;;;;;;51.75;38.00;;;;;;;;4895741;29;46753;-79
2023/12/01 11:36:49;;;;;;;;;55.25;42.50;;;;;;;;4891997;29;45281;-79
2023/12/01 11:39:20;;;;;;;;;51.00;40.75;;;;;;;;4887730;29;45192;-80
2023/12/01 11:41:49;;;;;;;;;50.00;41.00;;;;;;;;4902708;29;45504;-80
2023/12/01 11:44:30;;;;;;;;;45.50;36.00;;;;;;;;4900499;29;46060;-79
2023/12/01 11:46:57;;;;;;;;;39.75;37.25;;;;;;;;4902999;29;45355;-80
2023/12/01 11:49:32;;;;;;;;;51.25;38.75;;;;;;;;4902941;29;45361;-79
2023/12/01 11:51:58;;;;;;;;;43.50;38.00;;;;;;;;4902745;29;45578;-80
2023/12/01 11:54:23;;;;;;;;;52.75;41.00;;;;;;;;4888203;29;47368;-79
2023/12/01 11:56:50;;;;;;;;;48.33;37.33;;;;;;;;4906700;28;45226;-79
2023/12/01 11:59:16;;;;;;;;;52.25;39.75;;;;;;;;4883085;29;45461;-79
2023/12/01 12:01:41;;;;;;;;;47.00;39.25;;;;;;;;4900918;28;45369;-79
2023/12/01 12:04:13;;;;;;;;;46.25;38.75;;;;;;;;4901285;29;45398;-79
2023/12/01 12:06:38;;;;;;;;;44.00;39.00;;;;;;;;4886015;29;46225;-80
2023/12/01 12:09:06;;;;;;;;;50.75;41.75;;;;;;;;4903032;29;45243;-79
2023/12/01 12:11:32;;;;;;;;;54.25;41.00;;;;;;;;4904574;28;45314;-78
2023/12/01 12:14:01;;;;;;;;;46.67;39.33;;;;;;;;4904328;29;46313;-81
2023/12/01 12:16:27;;;;;;;;;49.00;39.25;;;;;;;;4903300;28;45361;-79
2023/12/01 12:18:52;;;;;;;;;49.75;39.75;;;;;;;;4903849;29;45289;-79
2023/12/01 12:21:18;;;;;;;;;44.50;37.75;;;;;;;;4899036;28;47132;-81
2023/12/01 12:23:43;;;;;;;;;48.50;40.75;;;;;;;;4905349;28;45687;-83
2023/12/01 12:26:12;;;;;;;;;44.00;38.50;;;;;;;;4922192;28;45139;-81
2023/12/01 12:28:37;;;;;;;;;45.00;37.50;;;;;;;;4925204;28;45376;-81
2023/12/01 12:31:02;;;;;;;;;43.00;36.67;;;;;;;;4924710;28;45390;-81
2023/12/01 12:33:27;;;;;;;;;50.75;37.50;;;;;;;;4907186;28;47041;-81
2023/12/01 12:35:53;;;;;;;;;36.75;34.75;;;;;;;;4924826;28;45348;-79
2023/12/01 12:38:20;;;;;;;;;45.50;37.00;;;;;;;;4924930;28;45372;-78
2023/12/01 12:40:46;;;;;;;;;37.33;33.00;;;;;;;;4925832;28;45421;-77
2023/12/01 12:43:11;;;;;;;;;34.67;32.00;;;;;;;;4907402;28;47210;-78
2023/12/01 12:45:37;;;;;;;;;45.33;37.00;;;;;;;;4924520;28;45408;-77
2023/12/01 12:48:03;;;;;;;;;44.33;37.33;;;;;;;;4908206;28;45382;-78
2023/12/01 12:50:28;;;;;;;;;37.33;34.67;;;;;;;;4933043;28;45238;-78
2023/12/01 12:52:54;;;;;;;;;43.33;36.67;;;;;;;;4940184;28;45314;-79
2023/12/01 12:55:23;;;;;;;;;34.33;26.33;;;;;;;;4937013;28;45489;-76
2023/12/01 12:57:49;;;;;;;;;38.33;32.33;;;;;;;;4905388;29;45392;-77
2023/12/01 13:00:14;;;;;;;;;44.33;35.00;;;;;;;;4920366;29;45337;-77
2023/12/01 13:02:39;;;;;;;;;29.33;28.00;;;;;;;;4921066;28;45205;-77
2023/12/01 13:05:04;;;;;;;;;28.00;26.33;;;;;;;;4922870;29;45414;-77
2023/12/01 13:07:30;;;;;;;;;40.33;33.33;;;;;;;;4923192;28;45283;-77
2023/12/01 13:09:55;;;;;;;;;36.00;32.00;;;;;;;;4922439;29;45477;-76
2023/12/01 13:12:20;;;;;;;;;54.25;41.25;;;;;;;;4919462;29;45369;-75
2023/12/01 13:14:46;;;;;;;;;40.00;34.67;;;;;;;;4886948;29;45702;-75
2023/12/01 13:17:11;;;;;;;;;35.00;31.00;;;;;;;;4904218;29;45589;-75
2023/12/01 13:19:36;;;;;;;;;39.00;34.00;;;;;;;;4903608;29;45529;-75
2023/12/01 13:22:02;;;;;;;;;35.00;34.00;;;;;;;;4904084;29;45979;-75
2023/12/01 13:24:27;;;;;;;;;38.33;33.33;;;;;;;;4905038;29;45377;-75
2023/12/01 13:26:52;;;;;;;;;35.00;32.00;;;;;;;;4904987;29;45328;-76
2023/12/01 13:29:17;;;;;;;;;32.33;30.33;;;;;;;;4887816;29;46263;-75
2023/12/01 13:31:43;;;;;;;;;33.67;32.00;;;;;;;;4888034;29;47292;-76
2023/12/01 13:34:08;;;;;;;;;49.25;40.25;;;;;;;;4904759;29;45289;-73
2023/12/01 13:36:33;;;;;;;;;40.80;37.40;;;;;;;;4905247;29;45363;-74
2023/12/01 13:38:58;;;;;;;;;50.25;39.25;;;;;;;;4903853;29;45330;-74
2023/12/01 13:41:24;;;;;;;;;34.50;33.25;;;;;;;;4904744;29;45696;-75
2023/12/01 13:43:49;;;;;;;;;40.00;36.75;;;;;;;;4904182;29;45261;-75
2023/12/01 13:46:14;;;;;;;;;41.00;36.75;;;;;;;;4879764;29;46509;-75
2023/12/01 13:48:39;;;;;;;;;37.67;33.00;;;;;;;;4900744;29;45422;-74
2023/12/01 13:51:05;;;;;;;;;34.00;32.33;;;;;;;;4903609;29;46074;-75
2023/12/01 13:53:30;;;;;;;;;44.50;37.25;;;;;;;;4903146;29;45353;-75
2023/12/01 13:55:55;;;;;;;;;44.00;38.00;;;;;;;;4901440;29;45338;-76
2023/12/01 13:58:20;;;;;;;;;45.25;36.75;;;;;;;;4910400;28;45548;-75
2023/12/01 14:00:48;;;;;;;;;42.00;36.75;;;;;;;;4901564;29;45883;-74
2023/12/01 14:03:13;;;;;;;;;36.33;34.00;;;;;;;;4889952;29;45681;-75
2023/12/01 14:05:38;;;;;;;;;24.67;22.00;;;;;;;;4885508;29;45484;-75
2023/12/01 14:08:04;;;;;;;;;37.00;35.00;;;;;;;;4900783;29;45411;-75
2023/12/01 14:10:29;;;;;;;;;37.00;33.00;;;;;;;;4867512;29;47436;-75